Terminal Aerodrome Forecast
Issued by NWS Paducah, KY

Home | Current Version | Previous Version | Text Only | Print | Product List | Glossary On
Versions: 1 2 3 4 5 6 7 8 9 10 11 12 13 14 15 16 17 18 19 20 21 22
000
FTUS43 KPAH 032334
TAFEVV
TAF
KEVV 032334Z 0400/0424 26007KT 4SM -SHRA BR OVC005
     FM040300 35008KT 2SM -RA BR OVC003
     FM041100 34010KT 3SM -SNPL BR OVC003
     FM041600 35012G18KT 3SM -SN BR OVC003=

USA.gov is the U.S. government's official web portal to all federal, state and local government web resources and services.